Time;durP1;ratioP1;P1;durP2;ratioP2;P2;SDS_P1;SDS_P2;PMS_P1;PMS_P2;Temp;Humidity;BMP_temperature;BMP_pressure;BME280_temperature;BME280_humidity;BME280_pressure;Samples;Min_cycle;Max_cycle;Signal;HPM_P1;HPM_P2
2021/01/01 00:00:31;;;;;;;52.67;26.00;;;;;;;2.03;92.46;97587.66;5079687;28;20016;-68
2021/01/01 00:02:59;;;;;;;45.83;22.17;;;;;;;2.06;91.52;97594.47;5079586;28;20069;-69
2021/01/01 00:05:25;;;;;;;51.13;25.58;;;;;;;1.90;92.12;97574.09;5071311;28;20035;-69
2021/01/01 00:07:51;;;;;;;58.92;29.40;;;;;;;2.03;92.20;97593.00;5066328;28;20025;-70
2021/01/01 00:10:16;;;;;;;68.45;30.88;;;;;;;2.02;92.33;97599.34;5053149;28;20025;-68
2021/01/01 00:12:42;;;;;;;66.32;31.27;;;;;;;2.03;92.00;97595.66;5064329;28;20119;-70
2021/01/01 00:15:08;;;;;;;66.72;33.00;;;;;;;2.04;92.12;97602.66;5071609;28;20044;-69
2021/01/01 00:17:33;;;;;;;67.53;34.67;;;;;;;2.03;92.06;97603.69;5051950;28;20024;-69
2021/01/01 00:19:59;;;;;;;66.15;32.42;;;;;;;1.98;92.77;97593.53;5051915;28;20036;-68
2021/01/01 00:22:24;;;;;;;62.58;30.67;;;;;;;2.00;92.60;97573.88;5052106;28;20026;-70
2021/01/01 00:24:49;;;;;;;63.25;29.65;;;;;;;2.11;92.85;97581.44;5064070;28;20482;-72
2021/01/01 00:27:16;;;;;;;54.58;27.10;;;;;;;2.17;92.90;97580.72;5056904;28;20029;-68
2021/01/01 00:29:41;;;;;;;58.05;26.75;;;;;;;2.09;92.91;97584.28;5069955;28;20032;-68
2021/01/01 00:32:06;;;;;;;51.45;24.83;;;;;;;2.23;91.76;97587.16;5071077;28;20120;-70
2021/01/01 00:34:32;;;;;;;36.92;18.45;;;;;;;2.17;91.46;97596.72;5071827;28;20050;-68
2021/01/01 00:37:01;;;;;;;42.55;20.83;;;;;;;2.19;92.03;97602.72;5065399;28;20025;-69
2021/01/01 00:39:26;;;;;;;45.15;23.77;;;;;;;2.16;92.45;97603.91;5060926;28;20033;-70
2021/01/01 00:41:51;;;;;;;46.33;20.85;;;;;;;2.21;92.50;97600.69;5071031;28;20044;-69
2021/01/01 00:44:17;;;;;;;40.15;20.17;;;;;;;2.23;92.27;97597.84;5054225;28;20099;-68
2021/01/01 00:46:42;;;;;;;40.92;20.73;;;;;;;2.11;93.13;97587.59;5066757;28;20554;-68
2021/01/01 00:49:08;;;;;;;33.85;18.70;;;;;;;2.18;92.50;97599.22;5070580;28;20035;-69
2021/01/01 00:51:33;;;;;;;31.52;17.38;;;;;;;2.19;92.52;97602.72;5071506;28;20123;-68
2021/01/01 00:53:59;;;;;;;31.77;17.92;;;;;;;2.20;92.38;97601.69;5070322;28;20039;-68
2021/01/01 00:56:26;;;;;;;34.20;16.88;;;;;;;2.17;92.42;97607.38;5065231;28;20044;-71
2021/01/01 00:58:53;;;;;;;30.15;16.17;;;;;;;2.20;92.22;97620.38;5061956;28;20032;-68
2021/01/01 01:01:22;;;;;;;33.08;17.38;;;;;;;2.19;92.31;97616.88;5055924;28;20036;-69
2021/01/01 01:03:55;;;;;;;34.50;17.88;;;;;;;2.19;92.67;97614.22;5058694;28;20021;-71
2021/01/01 01:06:21;;;;;;;29.95;17.17;;;;;;;2.18;92.69;97617.06;5070804;28;20060;-68
2021/01/01 01:08:46;;;;;;;35.80;17.30;;;;;;;2.11;92.85;97602.78;5064165;28;20086;-67
2021/01/01 01:11:12;;;;;;;33.83;16.23;;;;;;;2.14;92.55;97611.25;5056755;28;20032;-69
2021/01/01 01:13:37;;;;;;;32.63;16.13;;;;;;;2.14;92.71;97623.75;5065323;28;20028;-69
2021/01/01 01:16:04;;;;;;;27.42;14.70;;;;;;;2.16;92.71;97621.75;5051917;28;20033;-69
2021/01/01 01:18:29;;;;;;;29.15;14.38;;;;;;;2.18;92.42;97630.41;5051214;28;20028;-70
2021/01/01 01:20:55;;;;;;;22.42;12.07;;;;;;;2.15;91.75;97628.09;5061353;28;20031;-68
2021/01/01 01:23:20;;;;;;;25.27;12.75;;;;;;;2.15;91.67;97634.28;5065101;28;20035;-68
2021/01/01 01:25:46;;;;;;;22.98;11.70;;;;;;;2.08;91.34;97625.31;5067664;28;20024;-69
2021/01/01 01:28:11;;;;;;;19.13;11.23;;;;;;;2.15;91.13;97636.13;5066708;28;20073;-68
2021/01/01 01:30:37;;;;;;;22.73;11.85;;;;;;;2.09;91.04;97634.13;5061510;28;20032;-68
2021/01/01 01:33:02;;;;;;;23.10;12.13;;;;;;;2.13;91.35;97630.13;5062193;28;20117;-69
2021/01/01 01:35:28;;;;;;;24.45;13.00;;;;;;;2.11;91.37;97629.47;5070682;28;20059;-70
2021/01/01 01:37:53;;;;;;;28.13;13.57;;;;;;;2.16;91.23;97643.09;5062153;28;20040;-69
2021/01/01 01:40:19;;;;;;;20.88;11.63;;;;;;;2.11;90.25;97629.47;5064625;28;20036;-67
2021/01/01 01:42:44;;;;;;;20.23;11.48;;;;;;;2.09;90.13;97647.47;5063572;28;20523;-68
2021/01/01 01:45:10;;;;;;;22.17;12.25;;;;;;;2.09;90.08;97642.97;5065961;28;20078;-68
2021/01/01 01:47:37;;;;;;;23.70;12.68;;;;;;;2.09;90.79;97647.47;5060591;28;20032;-68
2021/01/01 01:50:03;;;;;;;21.30;12.18;;;;;;;2.02;90.92;97634.03;5066353;28;20039;-69
2021/01/01 01:52:29;;;;;;;20.73;11.65;;;;;;;2.07;90.75;97641.47;5052779;28;20498;-68
2021/01/01 01:54:54;;;;;;;24.38;12.13;;;;;;;2.11;91.07;97656.13;5069567;28;20078;-67
2021/01/01 01:57:24;;;;;;;21.70;11.57;;;;;;;2.17;91.13;97647.41;5058747;28;20109;-69
2021/01/01 01:59:54;;;;;;;23.10;11.40;;;;;;;2.18;90.82;97644.56;5057525;28;20059;-68
2021/01/01 02:02:21;;;;;;;20.98;11.25;;;;;;;2.16;91.60;97648.44;5066536;28;20064;-67
2021/01/01 02:04:47;;;;;;;19.73;9.70;;;;;;;2.16;91.26;97651.09;5070163;28;20605;-66
2021/01/01 02:07:12;;;;;;;15.77;9.48;;;;;;;2.10;91.15;97659.84;5069621;28;20111;-67
2021/01/01 02:09:38;;;;;;;24.25;10.82;;;;;;;2.13;90.77;97659.47;5052005;28;20116;-67
2021/01/01 02:12:03;;;;;;;18.40;10.43;;;;;;;2.14;91.96;97661.13;5061806;28;20408;-68
2021/01/01 02:14:30;;;;;;;17.05;9.93;;;;;;;2.12;92.04;97660.47;5065942;28;20017;-69
2021/01/01 02:16:55;;;;;;;17.60;9.75;;;;;;;2.11;91.33;97664.16;5059682;28;20051;-68
2021/01/01 02:19:20;;;;;;;20.80;10.50;;;;;;;2.10;91.43;97662.50;5069948;28;20482;-67
2021/01/01 02:21:48;;;;;;;18.40;10.00;;;;;;;2.17;90.51;97664.28;5063423;28;20032;-68
2021/01/01 02:24:13;;;;;;;15.90;8.88;;;;;;;2.27;89.59;97655.19;5057981;28;20665;-68
2021/01/01 02:26:39;;;;;;;18.98;8.90;;;;;;;2.50;88.81;97664.00;5053563;28;20024;-68
2021/01/01 02:29:04;;;;;;;18.63;10.32;;;;;;;2.36;89.19;97670.97;5051711;28;20029;-67
2021/01/01 02:31:30;;;;;;;22.50;11.70;;;;;;;2.26;89.54;97674.88;5054121;28;20048;-69
2021/01/01 02:33:55;;;;;;;25.98;14.05;;;;;;;2.11;90.59;97680.97;5056236;28;20029;-71
2021/01/01 02:36:21;;;;;;;26.35;14.93;;;;;;;2.04;91.04;97673.84;5069527;28;20447;-68
2021/01/01 02:38:47;;;;;;;25.95;14.00;;;;;;;2.06;90.93;97674.53;5055615;28;20044;-67
2021/01/01 02:41:12;;;;;;;26.13;13.73;;;;;;;2.02;91.13;97673.19;5049716;28;20091;-67
2021/01/01 02:43:38;;;;;;;25.02;13.45;;;;;;;1.98;91.20;97672.72;5051970;28;20028;-71
2021/01/01 02:46:03;;;;;;;23.95;12.57;;;;;;;2.09;90.73;97668.81;5056425;28;20405;-67
2021/01/01 02:48:29;;;;;;;23.67;12.43;;;;;;;2.02;90.97;97679.38;5067938;28;20024;-68
2021/01/01 02:50:54;;;;;;;19.95;11.25;;;;;;;2.01;90.82;97672.38;5067446;28;20111;-68
2021/01/01 02:53:19;;;;;;;20.10;11.05;;;;;;;2.02;90.76;97675.88;5057352;28;20029;-68
2021/01/01 02:55:45;;;;;;;23.95;11.93;;;;;;;1.97;90.90;97684.41;5056052;28;20024;-68
2021/01/01 02:58:10;;;;;;;20.08;11.55;;;;;;;2.00;91.39;97681.41;5068955;28;20037;-69
2021/01/01 03:00:39;;;;;;;25.65;12.65;;;;;;;1.91;91.87;97661.97;5064016;28;20127;-68
2021/01/01 03:03:04;;;;;;;22.92;12.73;;;;;;;2.04;91.84;97684.53;5065591;28;20483;-71
2021/01/01 03:05:29;;;;;;;19.73;11.35;;;;;;;2.07;91.68;97692.16;5053076;28;20020;-68
2021/01/01 03:07:55;;;;;;;24.75;12.60;;;;;;;2.08;91.73;97689.34;5063652;28;20114;-67
2021/01/01 03:10:20;;;;;;;21.60;12.00;;;;;;;2.06;91.82;97691.34;5069054;28;20394;-70
2021/01/01 03:12:46;;;;;;;22.92;12.77;;;;;;;2.10;91.16;97686.50;5061559;28;20036;-68
2021/01/01 03:15:12;;;;;;;21.42;12.32;;;;;;;2.04;91.33;97688.03;5064369;28;20037;-69
2021/01/01 03:17:37;;;;;;;23.10;12.50;;;;;;;2.06;92.04;97695.84;5061197;28;20072;-67
2021/01/01 03:20:04;;;;;;;24.38;12.05;;;;;;;2.01;91.90;97692.88;5072652;28;20036;-69
2021/01/01 03:22:30;;;;;;;22.85;12.65;;;;;;;1.97;91.64;97687.91;5072618;28;20424;-69
2021/01/01 03:24:55;;;;;;;25.58;13.30;;;;;;;1.97;91.60;97697.75;5072926;28;20036;-67
2021/01/01 03:27:20;;;;;;;25.42;13.00;;;;;;;1.93;91.93;97702.59;5059965;28;20490;-68
2021/01/01 03:29:45;;;;;;;24.23;12.98;;;;;;;1.90;92.16;97702.94;5071123;28;20047;-67
2021/01/01 03:32:11;;;;;;;24.10;12.77;;;;;;;1.94;91.88;97703.44;5071234;28;20033;-69
2021/01/01 03:34:36;;;;;;;21.58;12.57;;;;;;;1.93;92.01;97696.44;5070688;28;20039;-68
2021/01/01 03:37:01;;;;;;;26.10;13.68;;;;;;;1.90;92.64;97694.94;5066987;28;20048;-69
2021/01/01 03:39:26;;;;;;;26.77;13.10;;;;;;;1.90;92.01;97694.13;5052771;28;20033;-69
2021/01/01 03:41:52;;;;;;;25.27;13.57;;;;;;;2.00;91.80;97699.25;5063880;28;20036;-69
2021/01/01 03:44:17;;;;;;;21.90;13.10;;;;;;;1.98;91.97;97697.56;5072187;28;20024;-70
2021/01/01 03:46:42;;;;;;;27.55;13.48;;;;;;;1.98;92.02;97694.91;5066520;28;20520;-68
2021/01/01 03:49:07;;;;;;;27.10;13.77;;;;;;;1.96;91.88;97690.75;5067000;28;20043;-69
2021/01/01 03:51:33;;;;;;;27.25;14.95;;;;;;;1.92;92.16;97695.59;5062303;28;20025;-69
2021/01/01 03:53:58;;;;;;;23.55;13.15;;;;;;;1.81;91.64;97674.69;5054489;28;20032;-70
2021/01/01 03:56:23;;;;;;;26.05;13.95;;;;;;;1.89;91.89;97695.97;5059948;28;20044;-72
2021/01/01 03:58:48;;;;;;;24.92;12.88;;;;;;;1.82;92.21;97687.00;5068260;28;20039;-72
2021/01/01 04:01:17;;;;;;;26.98;12.73;;;;;;;1.83;92.28;97696.66;5067877;28;20033;-71
2021/01/01 04:03:42;;;;;;;24.23;12.88;;;;;;;1.79;92.21;97684.69;5070334;28;20100;-72
2021/01/01 04:06:08;;;;;;;22.33;11.00;;;;;;;1.78;92.51;97682.19;5075439;28;20120;-70
2021/01/01 04:08:33;;;;;;;25.70;12.70;;;;;;;1.85;92.66;97683.97;5054813;28;20037;-71
2021/01/01 04:10:58;;;;;;;25.33;13.13;;;;;;;1.95;92.82;97705.91;5067197;28;20021;-71
2021/01/01 04:13:24;;;;;;;21.25;11.77;;;;;;;1.95;92.19;97699.75;5054472;28;20032;-71
2021/01/01 04:15:49;;;;;;;23.13;12.45;;;;;;;1.89;92.84;97687.97;5063587;28;20081;-71
2021/01/01 04:18:16;;;;;;;22.95;12.45;;;;;;;1.96;92.90;97706.75;5067163;28;20386;-71
2021/01/01 04:20:41;;;;;;;24.50;13.00;;;;;;;1.93;92.98;97697.25;5069689;28;20493;-71
2021/01/01 04:23:06;;;;;;;22.85;12.73;;;;;;;1.90;93.20;97702.13;5058736;28;20024;-71
2021/01/01 04:25:32;;;;;;;22.25;11.90;;;;;;;1.89;93.37;97701.31;5055938;28;20379;-71
2021/01/01 04:27:57;;;;;;;21.67;12.20;;;;;;;1.82;93.20;97700.34;5061573;28;20032;-71
2021/01/01 04:30:22;;;;;;;20.55;11.90;;;;;;;1.85;93.39;97710.66;5072118;28;20035;-71
2021/01/01 04:32:48;;;;;;;26.25;13.25;;;;;;;1.72;93.34;97687.22;5057042;28;20092;-71
2021/01/01 04:35:13;;;;;;;23.40;13.27;;;;;;;1.70;92.76;97696.38;5069744;28;20028;-71
2021/01/01 04:37:38;;;;;;;25.48;14.93;;;;;;;1.79;93.09;97706.03;5070365;28;20024;-69
2021/01/01 04:40:05;;;;;;;28.77;14.20;;;;;;;1.85;93.03;97704.47;5067243;28;20036;-71
2021/01/01 04:42:30;;;;;;;25.63;13.10;;;;;;;1.86;93.46;97706.13;5062691;28;20016;-70
2021/01/01 04:44:57;;;;;;;20.73;11.40;;;;;;;1.77;93.06;97700.03;5054486;28;20043;-70
2021/01/01 04:47:22;;;;;;;24.02;13.15;;;;;;;1.87;93.25;97718.47;5063920;28;20482;-71
2021/01/01 04:49:50;;;;;;;25.10;13.45;;;;;;;1.82;93.26;97704.84;5066149;28;20025;-70
2021/01/01 04:52:17;;;;;;;25.05;13.02;;;;;;;1.83;93.65;97707.31;5070223;28;20167;-71
2021/01/01 04:54:44;;;;;;;25.10;12.35;;;;;;;1.90;93.52;97710.94;5068768;28;20028;-71
2021/01/01 04:57:11;;;;;;;24.95;13.80;;;;;;;1.88;93.59;97709.47;5064735;28;20091;-71
2021/01/01 04:59:36;;;;;;;22.90;12.75;;;;;;;1.81;93.79;97696.00;5055268;28;20036;-71
2021/01/01 05:02:01;;;;;;;22.75;11.95;;;;;;;1.95;93.39;97721.94;5054839;28;20043;-70
2021/01/01 05:04:26;;;;;;;21.63;11.63;;;;;;;1.97;93.19;97717.25;5062408;28;20029;-71
2021/01/01 05:06:52;;;;;;;21.20;11.60;;;;;;;2.03;92.68;97720.22;5070995;28;20028;-70
2021/01/01 05:09:17;;;;;;;19.70;11.75;;;;;;;1.90;92.63;97718.94;5061032;28;20103;-69
2021/01/01 05:11:42;;;;;;;24.85;12.45;;;;;;;1.93;93.12;97729.25;5054977;28;20072;-70
2021/01/01 05:14:08;;;;;;;21.65;12.43;;;;;;;1.75;93.28;97708.19;5055146;28;20037;-70
2021/01/01 05:16:35;;;;;;;21.17;12.80;;;;;;;1.72;93.19;97708.53;5061234;28;20035;-70
2021/01/01 05:19:10;;;;;;;22.90;12.85;;;;;;;1.71;93.65;97698.06;5058243;28;20029;-71
2021/01/01 05:21:35;;;;;;;21.88;12.65;;;;;;;1.76;93.83;97730.38;5053901;28;20020;-72
2021/01/01 05:24:04;;;;;;;23.83;12.45;;;;;;;1.73;93.23;97733.38;5052890;28;20025;-72
2021/01/01 05:26:29;;;;;;;25.92;12.93;;;;;;;1.89;92.71;97733.31;5067534;28;20040;-72
2021/01/01 05:29:03;;;;;;;22.95;11.88;;;;;;;1.89;93.13;97732.47;5063293;28;20020;-71
2021/01/01 05:31:30;;;;;;;19.70;11.02;;;;;;;1.88;92.45;97744.13;5056107;28;20086;-70
2021/01/01 05:34:06;;;;;;;20.00;10.55;;;;;;;1.93;92.58;97747.94;5063006;28;20020;-70
2021/01/01 05:36:33;;;;;;;18.83;9.23;;;;;;;1.93;92.54;97745.28;5066938;28;20100;-72
2021/01/01 05:39:01;;;;;;;18.50;9.45;;;;;;;1.90;92.24;97750.97;5053141;28;20391;-72
2021/01/01 05:41:31;;;;;;;16.20;9.30;;;;;;;1.95;91.36;97745.94;5066212;28;20032;-71
2021/01/01 05:44:12;;;;;;;19.42;9.93;;;;;;;1.98;91.32;97742.91;5053843;28;20130;-71
2021/01/01 05:46:57;;;;;;;18.85;8.80;;;;;;;1.93;91.80;97744.44;5053465;28;20039;-71
2021/01/01 05:49:25;;;;;;;18.35;9.63;;;;;;;1.91;91.32;97744.63;5057612;28;20049;-71
2021/01/01 05:52:15;;;;;;;16.02;8.63;;;;;;;1.87;91.33;97745.16;5055897;28;20103;-70
2021/01/01 05:54:43;;;;;;;15.63;8.75;;;;;;;1.88;92.03;97758.28;5069007;28;20036;-71
2021/01/01 05:57:10;;;;;;;16.80;8.82;;;;;;;1.82;91.93;97755.50;5051496;28;20028;-70
2021/01/01 05:59:53;;;;;;;17.20;8.80;;;;;;;1.89;92.05;97759.97;5062332;28;20032;-71
2021/01/01 06:02:20;;;;;;;15.57;8.15;;;;;;;1.91;91.02;97755.31;5072100;28;20028;-69
2021/01/01 06:04:46;;;;;;;14.52;7.72;;;;;;;1.92;91.24;97764.97;5063162;28;20078;-71
2021/01/01 06:07:11;;;;;;;15.18;8.07;;;;;;;1.86;91.34;97773.66;5052651;28;20024;-70
2021/01/01 06:09:38;;;;;;;16.05;8.15;;;;;;;1.97;91.23;97767.94;5062603;28;20103;-70
2021/01/01 06:12:09;;;;;;;12.80;7.13;;;;;;;1.86;90.84;97747.00;5060207;28;20028;-72
2021/01/01 06:14:37;;;;;;;10.82;6.03;;;;;;;1.92;90.09;97780.97;5065702;28;20496;-71
2021/01/01 06:17:14;;;;;;;12.68;6.03;;;;;;;1.91;90.66;97779.31;5058747;28;20036;-70
2021/01/01 06:19:54;;;;;;;11.00;5.72;;;;;;;1.83;90.38;97787.31;5061626;28;20390;-71
2021/01/01 06:22:23;;;;;;;;;;;;;;;1.80;90.20;97790.34;5065459;28;20048;-70
2021/01/01 06:24:51;;;;;;;;;;;;;;;1.81;90.42;97785.81;5054038;28;20354;-71
2021/01/01 06:27:18;;;;;;;8.48;4.28;;;;;;;1.84;89.28;97797.00;5053121;28;19916;-69
2021/01/01 06:29:45;;;;;;;8.05;4.20;;;;;;;1.74;89.21;97788.38;5055106;28;20082;-70
2021/01/01 06:32:12;;;;;;;9.20;4.30;;;;;;;1.68;89.32;97789.91;5052775;28;20078;-71
2021/01/01 06:34:37;;;;;;;7.32;4.13;;;;;;;1.67;89.74;97790.06;5070944;28;20039;-71
2021/01/01 06:37:03;;;;;;;9.23;4.40;;;;;;;1.63;90.09;97802.09;5054220;28;20041;-71
2021/01/01 06:39:37;;;;;;;9.90;4.22;;;;;;;1.49;89.98;97796.47;5051933;28;20029;-73
2021/01/01 06:42:03;;;;;;;8.45;3.70;;;;;;;1.59;90.09;97808.75;5057410;28;20111;-71
2021/01/01 06:44:40;;;;;;;8.95;4.40;;;;;;;1.59;90.39;97812.22;5059105;28;20116;-71
2021/01/01 06:47:10;;;;;;;6.95;4.32;;;;;;;1.49;90.02;97798.25;5054624;28;21997;-72
2021/01/01 06:49:39;;;;;;;7.80;4.05;;;;;;;1.55;89.87;97810.94;5071435;28;20482;-72
2021/01/01 06:52:15;;;;;;;6.22;3.58;;;;;;;1.60;90.12;97813.06;5064228;28;20436;-71
2021/01/01 06:54:54;;;;;;;7.93;3.83;;;;;;;1.50;89.75;97819.44;5092959;28;20020;-70
2021/01/01 06:57:22;;;;;;;7.85;3.85;;;;;;;1.51;89.55;97823.75;5080412;28;20025;-71
2021/01/01 06:59:48;;;;;;;7.28;3.60;;;;;;;1.46;90.55;97828.75;5074410;28;20078;-72
2021/01/01 07:02:22;;;;;;;7.93;4.00;;;;;;;1.44;89.97;97828.13;5073973;28;20060;-71
2021/01/01 07:04:48;;;;;;;8.50;4.22;;;;;;;1.32;90.19;97808.13;5074152;28;20467;-71
2021/01/01 07:07:42;;;;;;;6.30;3.85;;;;;;;1.48;89.70;97836.59;5085040;28;20753;-70
2021/01/01 07:10:13;;;;;;;7.20;3.95;;;;;;;1.57;89.48;97834.72;5070783;28;20126;-71
2021/01/01 07:12:38;;;;;;;6.35;3.40;;;;;;;1.54;89.23;97836.72;5062380;28;20116;-69
2021/01/01 07:15:33;;;;;;;6.90;3.45;;;;;;;1.49;89.06;97844.44;5066191;28;20469;-71
2021/01/01 07:17:59;;;;;;;8.82;3.42;;;;;;;1.57;88.68;97840.06;5057954;28;20622;-71
2021/01/01 07:20:24;;;;;;;5.20;2.85;;;;;;;1.41;88.45;97833.75;5057091;28;20029;-71
2021/01/01 07:22:57;;;;;;;4.88;3.05;;;;;;;1.47;88.87;97850.94;5068959;28;20026;-72
2021/01/01 07:25:39;;;;;;;7.25;3.55;;;;;;;1.50;88.87;97859.41;5071889;28;20021;-69
2021/01/01 07:28:09;;;;;;;5.97;3.13;;;;;;;1.57;89.02;97856.06;5057472;28;20443;-72
2021/01/01 07:30:35;;;;;;;7.15;3.13;;;;;;;1.57;89.12;97866.72;5058208;28;20028;-72
2021/01/01 07:33:02;;;;;;;8.05;3.72;;;;;;;1.56;88.65;97862.41;5056944;28;20430;-70
2021/01/01 07:35:28;;;;;;;6.80;3.47;;;;;;;1.53;88.59;97851.06;5070452;28;20048;-71
2021/01/01 07:37:54;;;;;;;5.30;3.08;;;;;;;1.46;87.93;97839.41;5062338;28;20078;-71
2021/01/01 07:40:20;;;;;;;5.88;2.90;;;;;;;1.65;88.01;97869.38;5071527;28;20032;-72
2021/01/01 07:42:48;;;;;;;5.93;3.35;;;;;;;1.66;88.89;97871.06;5059368;28;20013;-72
2021/01/01 07:45:13;;;;;;;5.93;3.85;;;;;;;1.62;88.27;97870.53;5057160;28;20016;-68
2021/01/01 07:47:42;;;;;;;9.32;3.55;;;;;;;1.63;87.85;97871.41;5070593;28;20449;-72
2021/01/01 07:50:18;;;;;;;7.70;3.53;;;;;;;1.68;87.96;97875.22;5055735;28;20060;-71
2021/01/01 07:52:44;;;;;;;6.00;3.33;;;;;;;1.63;87.50;97858.06;5054930;28;20029;-71
2021/01/01 07:55:11;;;;;;;6.65;3.35;;;;;;;1.58;86.84;97852.41;5054722;28;20094;-71
2021/01/01 07:57:37;;;;;;;6.05;3.05;;;;;;;1.65;86.53;97885.38;5066069;28;20043;-72
2021/01/01 08:00:05;;;;;;;6.35;3.33;;;;;;;1.95;86.06;97884.63;5065562;28;20478;-71
2021/01/01 08:02:30;;;;;;;5.43;3.42;;;;;;;1.92;86.20;97895.66;5071767;28;20035;-68
2021/01/01 08:04:56;;;;;;;6.45;3.05;;;;;;;1.84;85.66;97884.19;5081473;28;20225;-71
2021/01/01 08:07:22;;;;;;;4.32;3.05;;;;;;;1.88;86.17;97891.66;5080824;28;20099;-70
2021/01/01 08:09:47;;;;;;;6.72;3.70;;;;;;;2.01;85.72;97891.13;5076177;28;20115;-70
2021/01/01 08:12:12;;;;;;;6.38;3.53;;;;;;;2.06;85.43;97893.28;5072168;28;20395;-71
2021/01/01 08:14:38;;;;;;;7.53;3.20;;;;;;;1.87;85.20;97890.00;5086436;28;20091;-71
2021/01/01 08:17:23;;;;;;;5.72;3.42;;;;;;;1.87;85.61;97900.66;5065320;28;20506;-71
2021/01/01 08:19:49;;;;;;;6.30;3.40;;;;;;;1.69;85.78;97874.19;5057473;28;20021;-71
2021/01/01 08:22:23;;;;;;;5.70;3.70;;;;;;;1.89;85.52;97898.66;5061462;28;20029;-72
2021/01/01 08:24:54;;;;;;;8.00;3.95;;;;;;;2.02;85.20;97908.81;5070001;28;20370;-70
2021/01/01 08:27:21;;;;;;;5.53;3.38;;;;;;;1.95;85.04;97897.16;5063830;28;20021;-71
2021/01/01 08:29:49;;;;;;;6.55;3.50;;;;;;;2.17;84.74;97906.25;5064076;28;20040;-70
2021/01/01 08:32:16;;;;;;;6.15;3.53;;;;;;;1.93;84.81;97881.31;5083559;28;20587;-73
2021/01/01 08:34:42;;;;;;;8.82;4.18;;;;;;;1.98;85.20;97902.13;5082621;28;20028;-73
2021/01/01 08:37:22;;;;;;;5.03;3.35;;;;;;;1.97;85.18;97909.31;5081451;28;20028;-72
2021/01/01 08:39:47;;;;;;;5.97;3.42;;;;;;;2.13;85.06;97908.44;5069338;28;20021;-73
2021/01/01 08:42:23;;;;;;;6.28;3.92;;;;;;;2.35;83.31;97912.19;5079402;28;20027;-72
2021/01/01 08:44:48;;;;;;;6.10;3.88;;;;;;;2.35;84.43;97898.00;5064606;28;20084;-74
2021/01/01 08:47:14;;;;;;;7.07;3.40;;;;;;;2.42;83.53;97909.66;5070926;28;20052;-75
2021/01/01 08:49:39;;;;;;;5.65;3.30;;;;;;;2.50;84.07;97928.31;5078277;28;20058;-73
2021/01/01 08:52:12;;;;;;;5.75;3.30;;;;;;;2.57;83.56;97928.47;5077436;28;20036;-73
2021/01/01 08:54:37;;;;;;;5.93;3.58;;;;;;;2.54;84.01;97924.28;5083044;28;20067;-74
2021/01/01 08:57:03;;;;;;;6.90;4.03;;;;;;;2.51;83.69;97923.78;5064865;28;20032;-75
2021/01/01 08:59:30;;;;;;;5.47;3.40;;;;;;;2.68;83.78;97935.25;5071769;28;20059;-73
2021/01/01 09:01:55;;;;;;;5.53;3.40;;;;;;;2.71;83.44;97943.72;5084132;28;20024;-74
2021/01/01 09:04:25;;;;;;;5.63;3.42;;;;;;;2.45;83.11;97930.66;5077015;28;20467;-75
2021/01/01 09:07:14;;;;;;;6.75;3.65;;;;;;;2.49;83.65;97944.50;5064802;28;20055;-74
2021/01/01 09:09:39;;;;;;;5.35;3.25;;;;;;;2.57;82.88;97933.81;5054610;28;20036;-75
2021/01/01 09:12:15;;;;;;;6.78;3.45;;;;;;;2.55;83.18;97941.97;5060728;28;20020;-73
2021/01/01 09:14:43;;;;;;;5.05;3.20;;;;;;;2.51;82.33;97931.81;5072555;28;20029;-74
2021/01/01 09:17:12;;;;;;;5.60;3.35;;;;;;;2.61;82.96;97945.78;5059123;28;20024;-70
2021/01/01 09:19:37;;;;;;;6.22;3.92;;;;;;;2.82;82.92;97945.16;5068429;28;20497;-78
2021/01/01 09:22:16;;;;;;;6.43;3.83;;;;;;;3.02;80.85;97957.09;5069328;28;20044;-73
2021/01/01 09:24:42;;;;;;;6.35;4.15;;;;;;;2.84;81.85;97965.38;5058597;28;20043;-73
2021/01/01 09:27:08;;;;;;;5.82;3.78;;;;;;;2.98;81.54;97958.44;5066688;28;20047;-73
2021/01/01 09:29:33;;;;;;;6.55;3.90;;;;;;;2.88;82.04;97957.00;5069797;28;20021;-74
2021/01/01 09:31:59;;;;;;;19.02;5.53;;;;;;;2.75;82.03;97946.88;5054850;28;20499;-73
2021/01/01 09:34:24;;;;;;;5.65;3.60;;;;;;;3.02;81.38;97958.94;5056767;28;20143;-73
2021/01/01 09:36:49;;;;;;;6.53;3.72;;;;;;;2.89;80.95;97954.16;5060657;28;20063;-72
2021/01/01 09:39:15;;;;;;;6.55;3.97;;;;;;;2.86;81.32;97959.84;5061014;28;20379;-77
2021/01/01 09:41:48;;;;;;;7.15;4.18;;;;;;;2.83;81.85;97961.03;5056620;28;20055;-71
2021/01/01 09:44:14;;;;;;;6.85;4.03;;;;;;;2.88;80.83;97944.47;5060698;28;20021;-72
2021/01/01 09:46:43;;;;;;;8.95;4.07;;;;;;;3.08;81.04;97966.22;5064825;28;20435;-69
2021/01/01 09:49:09;;;;;;;7.15;3.88;;;;;;;3.20;81.11;97966.69;5068900;28;20029;-69
2021/01/01 09:51:34;;;;;;;9.02;4.05;;;;;;;3.35;81.23;97974.75;5064161;28;20020;-70
2021/01/01 09:54:00;;;;;;;7.72;4.32;;;;;;;3.23;81.03;97971.66;5060615;28;20509;-70
2021/01/01 09:56:36;;;;;;;6.88;4.53;;;;;;;3.28;80.54;97985.34;5058302;28;20042;-70
2021/01/01 09:59:01;;;;;;;7.53;4.40;;;;;;;3.37;80.35;97976.22;5066863;28;20020;-69
2021/01/01 10:01:31;;;;;;;6.68;4.28;;;;;;;3.47;80.59;97981.34;5062822;28;20040;-69
2021/01/01 10:03:56;;;;;;;;;;;;;;;3.46;80.13;97987.72;5061440;28;20133;-69
2021/01/01 10:06:22;;;;;;;8.77;4.70;;;;;;;3.45;79.91;97970.81;5054845;28;19943;-69
2021/01/01 10:08:47;;;;;;;8.50;4.93;;;;;;;3.56;79.89;97993.63;5055905;28;20090;-69
2021/01/01 10:11:13;;;;;;;9.23;4.47;;;;;;;3.68;80.29;97980.69;5053546;28;20557;-70
2021/01/01 10:13:39;;;;;;;7.78;4.60;;;;;;;3.74;79.36;97980.78;5058909;28;20060;-70
2021/01/01 10:16:09;;;;;;;7.55;4.22;;;;;;;3.73;79.85;97981.81;5054365;28;20028;-70
2021/01/01 10:18:35;;;;;;;8.93;5.18;;;;;;;3.83;79.59;97972.72;5058971;28;20085;-70
2021/01/01 10:21:00;;;;;;;7.55;4.75;;;;;;;3.85;79.32;97976.03;5056498;28;20029;-70
2021/01/01 10:23:25;;;;;;;8.93;4.82;;;;;;;3.86;79.07;97973.16;5055802;28;20028;-70
2021/01/01 10:25:51;;;;;;;10.02;4.85;;;;;;;3.68;79.35;97978.00;5056133;28;21688;-70
2021/01/01 10:28:17;;;;;;;11.82;5.22;;;;;;;3.58;79.88;97980.09;5055416;28;20395;-70
2021/01/01 10:30:43;;;;;;;12.18;6.13;;;;;;;3.47;80.26;97967.97;5057009;28;20022;-70
2021/01/01 10:33:09;;;;;;;8.93;4.93;;;;;;;3.06;80.06;97981.59;5051753;28;20033;-70
2021/01/01 10:35:34;;;;;;;9.02;5.28;;;;;;;3.23;80.07;97977.84;5052065;28;20032;-69
2021/01/01 10:37:59;;;;;;;8.48;4.85;;;;;;;3.46;79.87;97985.88;5056967;28;20122;-69
2021/01/01 10:40:24;;;;;;;8.35;4.53;;;;;;;3.65;79.91;97981.06;5058637;28;20489;-67
2021/01/01 10:42:50;;;;;;;9.10;5.18;;;;;;;3.86;79.31;97975.03;5059727;28;20049;-69
2021/01/01 10:45:15;;;;;;;8.63;4.68;;;;;;;3.94;78.65;97980.28;5058477;28;20031;-70
2021/01/01 10:47:40;;;;;;;8.00;4.40;;;;;;;3.69;78.08;97977.00;5054853;28;20394;-69
2021/01/01 10:50:07;;;;;;;8.30;4.88;;;;;;;3.93;78.27;97959.91;5055099;28;20044;-68
2021/01/01 10:52:32;;;;;;;7.55;4.57;;;;;;;4.07;77.59;97968.97;5054416;28;20032;-70
2021/01/01 10:54:58;;;;;;;8.65;4.75;;;;;;;4.02;76.98;97972.19;5067107;28;20523;-70
2021/01/01 10:57:23;;;;;;;8.35;5.13;;;;;;;4.07;76.74;97975.16;5067875;28;20036;-70
2021/01/01 10:59:48;;;;;;;7.97;4.97;;;;;;;4.16;77.32;97974.03;5068328;28;20044;-69
2021/01/01 11:02:14;;;;;;;7.90;4.80;;;;;;;4.00;77.51;97971.53;5062131;28;20962;-69
2021/01/01 11:04:39;;;;;;;7.88;4.78;;;;;;;4.24;77.31;97962.41;5060471;28;20033;-69
2021/01/01 11:07:04;;;;;;;8.73;5.32;;;;;;;4.28;77.10;97965.56;5061918;28;20360;-70
2021/01/01 11:09:29;;;;;;;7.63;4.47;;;;;;;4.18;76.71;97960.47;5059573;28;20032;-70
2021/01/01 11:11:56;;;;;;;8.55;4.93;;;;;;;4.43;75.45;97970.91;5059385;28;20637;-72
2021/01/01 11:14:42;;;;;;;8.73;5.20;;;;;;;4.65;74.97;97971.84;5060193;28;20029;-69
2021/01/01 12:25:56;;;;;;;8.43;5.18;;;;;;;4.45;76.42;97929.53;5068385;28;20025;-71
2021/01/01 12:28:22;;;;;;;10.80;5.78;;;;;;;4.27;76.05;97926.41;5060539;28;20077;-71
2021/01/01 12:30:52;;;;;;;10.50;5.43;;;;;;;4.24;76.00;97932.97;5070894;28;20021;-71
2021/01/01 12:33:18;;;;;;;8.77;4.97;;;;;;;4.41;76.91;97928.28;5065200;28;20033;-71
2021/01/01 12:35:43;;;;;;;7.38;4.65;;;;;;;4.78;75.87;97921.09;5060909;28;20081;-71
2021/01/01 12:38:08;;;;;;;7.50;4.10;;;;;;;4.84;73.05;97931.06;5064006;28;20036;-70
2021/01/01 12:40:35;;;;;;;5.20;3.53;;;;;;;4.97;72.18;97938.44;5053340;28;20032;-71
2021/01/01 12:43:02;;;;;;;5.70;3.45;;;;;;;4.91;72.58;97923.94;5058286;28;20016;-70